Time;durP1;ratioP1;P1;durP2;ratioP2;P2;SDS_P1;SDS_P2;PMS_P1;PMS_P2;Temp;Humidity;BMP_temperature;BMP_pressure;BME280_temperature;BME280_humidity;BME280_pressure;Samples;Min_cycle;Max_cycle;Signal;HPM_P1;HPM_P2
2023/04/09 00:02:21;;;;;;;18.42;13.05;;;22.60;43.90;;;;;;6146172;28;83282;-67
2023/04/09 00:05:21;;;;;;;18.15;13.50;;;22.60;44.20;;;;;;6149054;28;83395;-68
2023/04/09 00:08:22;;;;;;;18.38;13.63;;;22.60;44.10;;;;;;6148010;28;83538;-66
2023/04/09 00:11:23;;;;;;;20.27;14.23;;;22.60;44.20;;;;;;6148595;28;89038;-67
2023/04/09 00:14:23;;;;;;;20.20;14.07;;;22.60;44.00;;;;;;6148116;28;83774;-66
2023/04/09 00:17:24;;;;;;;20.00;13.68;;;22.60;44.00;;;;;;6148805;28;83015;-65
2023/04/09 00:20:24;;;;;;;20.20;13.90;;;22.60;44.20;;;;;;6140822;28;83006;-66
2023/04/09 00:23:25;;;;;;;18.10;13.23;;;22.60;44.30;;;;;;6148696;28;83301;-66
2023/04/09 00:26:26;;;;;;;17.15;12.23;;;22.60;44.30;;;;;;6148915;28;83268;-66
2023/04/09 00:29:26;;;;;;;16.60;12.07;;;22.60;44.40;;;;;;6137057;28;85639;-66
2023/04/09 00:32:27;;;;;;;18.17;13.25;;;22.60;44.40;;;;;;6146916;28;84943;-61
2023/04/09 00:35:27;;;;;;;15.98;11.60;;;22.60;44.20;;;;;;6147806;28;84550;-62
2023/04/09 00:38:28;;;;;;;15.10;11.75;;;22.60;44.30;;;;;;6146540;28;87447;-63
2023/04/09 00:41:28;;;;;;;18.63;12.77;;;22.60;44.30;;;;;;6146523;28;84417;-61
2023/04/09 00:44:29;;;;;;;16.35;11.77;;;22.60;44.40;;;;;;6147488;28;85245;-62
2023/04/09 00:47:30;;;;;;;18.40;13.07;;;22.60;44.50;;;;;;6148393;28;83177;-62
2023/04/09 00:50:31;;;;;;;18.20;12.32;;;22.60;44.40;;;;;;6149377;28;84133;-65
2023/04/09 00:53:31;;;;;;;15.85;11.55;;;22.60;44.80;;;;;;6145185;28;86313;-65
2023/04/09 00:56:32;;;;;;;16.23;12.40;;;22.60;44.90;;;;;;6148451;28;83377;-72
2023/04/09 00:59:32;;;;;;;16.30;12.43;;;22.60;44.80;;;;;;6137122;28;85968;-68
2023/04/09 01:02:33;;;;;;;17.77;13.27;;;22.60;44.80;;;;;;6139652;28;84659;-68
2023/04/09 01:05:34;;;;;;;19.35;12.85;;;22.60;44.70;;;;;;6145036;28;83137;-69
2023/04/09 01:08:34;;;;;;;18.63;13.75;;;22.70;44.70;;;;;;6147021;28;86673;-64
2023/04/09 01:11:35;;;;;;;17.58;13.45;;;22.60;44.30;;;;;;6143172;28;86684;-67
2023/04/09 01:14:35;;;;;;;19.25;13.98;;;22.60;44.20;;;;;;6147605;28;85949;-68
2023/04/09 01:17:40;;;;;;;21.90;13.48;;;22.60;44.10;;;;;;6145990;28;85476;-69
2023/04/09 01:20:41;;;;;;;19.67;14.48;;;22.60;44.00;;;;;;6141803;28;86508;-64
2023/04/09 01:23:41;;;;;;;21.65;15.68;;;22.60;43.80;;;;;;6147761;28;84907;-66
2023/04/09 01:26:42;;;;;;;21.80;15.80;;;22.60;43.50;;;;;;6150990;28;86661;-66
2023/04/09 01:29:43;;;;;;;23.20;16.05;;;22.60;43.50;;;;;;6149636;28;86048;-65
2023/04/09 01:32:44;;;;;;;21.98;16.48;;;22.60;43.50;;;;;;6152609;28;83708;-67
2023/04/09 01:35:45;;;;;;;24.15;15.93;;;22.60;43.40;;;;;;6150621;28;83423;-66
2023/04/09 01:38:45;;;;;;;25.65;17.02;;;22.50;43.40;;;;;;6152017;28;85838;-69
2023/04/09 01:41:46;;;;;;;23.38;17.10;;;22.60;43.30;;;;;;6151125;28;82948;-62
2023/04/09 01:44:46;;;;;;;29.10;18.90;;;22.60;43.30;;;;;;6151636;28;83231;-63
2023/04/09 01:47:47;;;;;;;30.38;20.58;;;22.60;43.30;;;;;;6149796;28;85926;-62
2023/04/09 01:50:47;;;;;;;26.23;18.60;;;22.50;43.10;;;;;;6151493;28;83417;-63
2023/04/09 01:53:48;;;;;;;25.45;18.35;;;22.50;43.30;;;;;;6152377;28;89069;-63
2023/04/09 01:56:48;;;;;;;30.95;20.38;;;22.50;43.40;;;;;;6151222;28;83638;-62
2023/04/09 01:59:49;;;;;;;28.23;19.77;;;22.50;43.60;;;;;;6139526;28;86007;-63
2023/04/09 02:02:49;;;;;;;25.73;17.83;;;22.50;43.50;;;;;;6149663;28;85882;-62
2023/04/09 02:05:50;;;;;;;31.15;21.00;;;22.50;43.60;;;;;;6149419;28;83295;-63
2023/04/09 02:08:51;;;;;;;29.52;19.70;;;22.50;44.30;;;;;;6146662;28;84569;-64
2023/04/09 02:11:51;;;;;;;29.13;20.08;;;22.50;43.70;;;;;;6141144;28;83348;-63
2023/04/09 02:14:52;;;;;;;30.88;20.50;;;22.50;43.70;;;;;;6149110;28;85900;-62
2023/04/09 02:17:52;;;;;;;32.05;20.77;;;22.50;43.80;;;;;;6151158;28;84172;-61
2023/04/09 02:20:53;;;;;;;33.03;21.63;;;22.50;44.40;;;;;;6164895;28;83127;-61
2023/04/09 02:23:54;;;;;;;29.05;19.27;;;22.50;43.60;;;;;;6151086;28;83191;-67
2023/04/09 02:26:55;;;;;;;33.50;21.27;;;22.50;43.70;;;;;;6148535;28;84035;-67
2023/04/09 02:29:55;;;;;;;30.58;20.70;;;22.50;43.80;;;;;;6151046;28;83717;-68
2023/04/09 02:32:56;;;;;;;30.58;20.70;;;22.50;43.80;;;;;;6149774;28;86252;-68
2023/04/09 02:35:56;;;;;;;32.25;21.83;;;22.50;43.50;;;;;;6148910;28;83097;-70
2023/04/09 02:38:57;;;;;;;32.13;20.38;;;22.50;43.40;;;;;;6150223;28;83848;-69
2023/04/09 02:41:57;;;;;;;32.60;21.48;;;22.50;43.50;;;;;;6150914;28;83667;-62
2023/04/09 02:45:00;;;;;;;28.60;18.88;;;22.50;43.70;;;;;;6150017;28;83820;-60
2023/04/09 02:48:01;;;;;;;31.40;21.45;;;22.50;43.80;;;;;;6149061;28;85349;-61
2023/04/09 02:51:05;;;;;;;30.08;20.40;;;22.50;43.90;;;;;;6146301;28;83896;-61
2023/04/09 02:54:05;;;;;;;35.53;22.55;;;22.50;43.60;;;;;;6148892;28;85393;-61
2023/04/09 02:57:06;;;;;;;32.53;20.27;;;22.50;43.70;;;;;;6149658;28;83294;-61
2023/04/09 03:00:06;;;;;;;29.75;19.75;;;22.50;43.90;;;;;;6141452;28;82902;-63
2023/04/09 03:03:07;;;;;;;30.77;20.73;;;22.40;44.10;;;;;;6147182;28;86314;-63
2023/04/09 03:06:07;;;;;;;30.20;20.70;;;22.50;44.10;;;;;;6148802;28;84686;-63
2023/04/09 03:09:08;;;;;;;31.52;21.60;;;22.50;43.80;;;;;;6148509;28;84925;-64
2023/04/09 03:12:08;;;;;;;30.27;20.30;;;22.50;43.80;;;;;;6149586;28;84538;-64
2023/04/09 03:15:09;;;;;;;30.88;21.15;;;22.40;43.70;;;;;;6148338;28;86193;-64
2023/04/09 03:18:10;;;;;;;29.85;18.73;;;22.40;43.60;;;;;;6146612;28;83240;-73
2023/04/09 03:21:10;;;;;;;30.58;20.30;;;22.50;44.00;;;;;;6153211;28;83272;-73
2023/04/09 03:24:18;;;;;;;29.95;20.25;;;22.50;43.80;;;;;;6148721;28;86320;-72
2023/04/09 03:27:18;;;;;;;34.53;22.92;;;22.60;43.40;;;;;;6148156;28;84802;-72
2023/04/09 03:30:24;;;;;;;32.13;21.43;;;22.60;43.00;;;;;;6147546;28;83878;-73
2023/04/09 03:33:25;;;;;;;32.47;20.48;;;22.70;43.10;;;;;;6131274;28;86172;-72
2023/04/09 03:36:31;;;;;;;35.10;22.35;;;22.70;42.90;;;;;;6146022;28;84096;-66
2023/04/09 03:39:43;;;;;;;32.47;21.75;;;22.80;43.20;;;;;;6148404;28;83089;-68
2023/04/09 03:42:44;;;;;;;30.95;21.35;;;22.80;42.50;;;;;;6147823;28;85043;-66
2023/04/09 03:45:47;;;;;;;35.33;23.48;;;22.80;42.60;;;;;;6147908;28;84779;-69
2023/04/09 03:48:57;;;;;;;34.60;23.38;;;22.90;42.50;;;;;;6147511;28;85918;-70
2023/04/09 03:52:05;;;;;;;37.95;23.15;;;22.90;42.50;;;;;;6146887;28;85538;-66
2023/04/09 03:55:11;;;;;;;38.92;24.88;;;22.90;42.70;;;;;;6146244;28;84535;-69
2023/04/09 03:58:12;;;;;;;37.13;24.30;;;23.00;42.70;;;;;;6145937;28;85820;-68
2023/04/09 04:01:12;;;;;;;36.85;25.73;;;23.00;42.50;;;;;;6136972;28;86315;-65
2023/04/09 04:04:23;;;;;;;36.42;24.58;;;23.00;42.50;;;;;;6138670;28;84326;-70
2023/04/09 04:07:28;;;;;;;37.55;25.13;;;23.00;42.20;;;;;;6124228;28;85301;-68
2023/04/09 04:10:33;;;;;;;32.40;22.40;;;23.00;42.10;;;;;;6123304;28;86600;-69
2023/04/09 04:13:34;;;;;;;35.42;23.85;;;23.00;42.20;;;;;;6122460;28;84805;-71
2023/04/09 04:16:38;;;;;;;33.38;21.52;;;23.00;42.80;;;;;;6156485;28;85823;-72
2023/04/09 04:19:39;;;;;;;37.58;23.48;;;23.00;42.10;;;;;;6138567;28;85162;-71
2023/04/09 04:22:40;;;;;;;31.42;21.65;;;23.00;41.90;;;;;;6120960;28;85522;-71
2023/04/09 04:25:41;;;;;;;32.03;22.10;;;23.10;42.00;;;;;;6119909;28;92602;-69
2023/04/09 04:28:43;;;;;;;29.80;21.20;;;23.10;41.90;;;;;;6120513;28;87406;-71
2023/04/09 04:31:48;;;;;;;31.25;21.55;;;23.10;41.80;;;;;;6129859;28;85907;-65
2023/04/09 04:34:52;;;;;;;30.02;19.67;;;23.10;41.80;;;;;;6105788;28;90078;-68
2023/04/09 04:38:00;;;;;;;35.55;22.10;;;23.10;42.10;;;;;;6115842;28;85974;-68
2023/04/09 04:41:02;;;;;;;32.92;22.13;;;23.10;41.90;;;;;;6146860;28;84082;-71
2023/04/09 04:44:02;;;;;;;33.33;21.27;;;23.20;41.90;;;;;;6140156;28;86501;-66
2023/04/09 04:47:03;;;;;;;32.28;21.65;;;23.10;42.30;;;;;;6139155;28;90491;-69
2023/04/09 04:50:03;;;;;;;30.15;20.55;;;23.20;42.60;;;;;;6150376;28;84806;-60
2023/04/09 04:53:11;;;;;;;31.17;20.02;;;23.20;42.60;;;;;;6151285;28;86222;-64
2023/04/09 04:56:20;;;;;;;31.33;19.58;;;23.20;43.00;;;;;;6150835;28;86074;-68
2023/04/09 04:59:31;;;;;;;33.58;19.38;;;23.30;42.80;;;;;;6141219;28;88990;-64
2023/04/09 05:02:36;;;;;;;30.95;20.48;;;23.20;42.80;;;;;;6161920;28;85915;-63
2023/04/09 05:05:55;;;;;;;28.70;20.30;;;23.30;42.90;;;;;;6147550;28;85839;-63
2023/04/09 05:08:57;;;;;;;32.70;19.05;;;23.30;42.90;;;;;;6149060;28;85927;-62
2023/04/09 05:12:00;;;;;;;31.23;20.17;;;23.30;43.00;;;;;;6147617;28;84172;-64
2023/04/09 05:15:01;;;;;;;29.73;18.73;;;23.30;43.80;;;;;;6149990;28;86090;-62
2023/04/09 05:18:01;;;;;;;27.98;19.38;;;23.30;43.90;;;;;;6147946;28;85184;-63
2023/04/09 05:21:03;;;;;;;31.17;20.27;;;23.30;44.10;;;;;;6151345;28;84867;-58
2023/04/09 05:24:05;;;;;;;30.50;21.02;;;23.20;44.70;;;;;;6149278;28;85501;-64
2023/04/09 05:27:07;;;;;;;35.28;20.23;;;23.30;44.70;;;;;;6151105;28;85427;-60
2023/04/09 05:30:08;;;;;;;35.90;20.60;;;23.30;44.90;;;;;;6149921;28;86169;-61
2023/04/09 05:33:09;;;;;;;33.53;21.83;;;23.20;45.20;;;;;;6150841;28;84212;-59
2023/04/09 05:36:09;;;;;;;32.45;20.67;;;23.20;45.10;;;;;;6151828;28;84510;-59
2023/04/09 05:39:10;;;;;;;31.05;21.48;;;23.20;45.30;;;;;;6151578;28;85269;-59
2023/04/09 05:42:11;;;;;;;29.70;20.65;;;23.20;45.30;;;;;;6151820;28;82981;-60
2023/04/09 05:45:25;;;;;;;37.97;22.38;;;23.20;44.90;;;;;;6150651;28;84958;-62
2023/04/09 05:48:27;;;;;;;34.53;21.75;;;23.20;45.00;;;;;;6141879;28;84358;-65
2023/04/09 05:51:27;;;;;;;35.00;21.73;;;23.20;44.90;;;;;;6145060;28;88845;-62
2023/04/09 05:54:30;;;;;;;35.90;22.27;;;23.20;44.70;;;;;;6143606;28;85728;-63
2023/04/09 05:57:31;;;;;;;33.00;22.88;;;23.20;44.40;;;;;;6136143;28;86242;-65
2023/04/09 06:00:35;;;;;;;30.13;20.85;;;23.20;44.20;;;;;;6122779;28;85115;-60
2023/04/09 06:03:36;;;;;;;37.22;21.50;;;23.20;44.20;;;;;;6128467;28;85737;-62
2023/04/09 06:06:37;;;;;;;33.13;21.23;;;23.20;44.10;;;;;;6147057;28;83013;-61
2023/04/09 06:09:37;;;;;;;33.50;21.80;;;23.20;44.10;;;;;;6147518;28;86382;-61
2023/04/09 06:12:38;;;;;;;32.83;21.85;;;23.20;44.00;;;;;;6148352;28;84109;-61
2023/04/09 06:15:38;;;;;;;30.70;20.25;;;23.20;44.00;;;;;;6146414;28;86124;-62
2023/04/09 06:18:41;;;;;;;29.63;21.05;;;23.20;44.00;;;;;;6142734;28;83350;-64
2023/04/09 06:21:41;;;;;;;34.28;22.10;;;23.20;44.10;;;;;;6148406;28;89562;-62
2023/04/09 06:24:42;;;;;;;30.65;21.13;;;23.20;44.00;;;;;;6159882;28;83948;-65
2023/04/09 06:27:42;;;;;;;30.05;20.77;;;23.20;44.00;;;;;;6148440;28;84473;-67
2023/04/09 06:30:43;;;;;;;34.17;23.00;;;23.20;44.00;;;;;;6136712;28;84976;-62
2023/04/09 06:33:43;;;;;;;32.10;21.67;;;23.20;44.10;;;;;;6129085;28;84137;-66
2023/04/09 06:36:44;;;;;;;29.15;20.35;;;23.20;44.10;;;;;;6143412;28;84547;-64
2023/04/09 06:39:45;;;;;;;32.95;21.65;;;23.20;44.20;;;;;;6145308;28;83231;-64
2023/04/09 06:42:45;;;;;;;30.20;21.70;;;23.20;44.20;;;;;;6146884;28;85281;-68
2023/04/09 06:45:55;;;;;;;29.20;20.35;;;23.30;44.20;;;;;;6161732;28;84820;-66
2023/04/09 06:48:56;;;;;;;29.42;20.55;;;23.20;44.40;;;;;;6148830;28;83908;-62
2023/04/09 06:51:56;;;;;;;32.67;19.70;;;23.20;44.60;;;;;;6125112;28;84861;-59
2023/04/09 06:54:57;;;;;;;31.90;21.90;;;23.20;44.50;;;;;;6123775;28;82858;-64
2023/04/09 06:57:57;;;;;;;32.38;20.80;;;23.20;44.40;;;;;;6118462;28;83088;-59
2023/04/09 07:00:58;;;;;;;31.83;22.02;;;23.20;44.40;;;;;;6145205;28;84400;-60
2023/04/09 07:03:58;;;;;;;35.60;21.15;;;23.20;44.40;;;;;;6161216;28;84170;-59
2023/04/09 07:06:59;;;;;;;28.58;19.75;;;23.30;44.20;;;;;;6145137;28;83349;-56
2023/04/09 07:10:00;;;;;;;28.33;20.02;;;23.20;44.00;;;;;;6137052;28;84740;-63
2023/04/09 07:13:01;;;;;;;31.42;19.70;;;23.30;44.20;;;;;;6138222;28;83160;-62
2023/04/09 07:16:01;;;;;;;27.83;19.05;;;23.30;44.30;;;;;;6120212;28;83090;-62
2023/04/09 07:19:02;;;;;;;26.05;19.05;;;23.30;44.40;;;;;;6135524;28;82720;-63
2023/04/09 07:22:02;;;;;;;30.17;18.88;;;23.30;44.70;;;;;;6147351;28;82935;-64
2023/04/09 07:25:03;;;;;;;27.13;19.13;;;23.30;44.70;;;;;;6136269;28;84402;-65
2023/04/09 07:28:03;;;;;;;27.25;19.00;;;23.30;44.40;;;;;;6146597;28;83934;-63
2023/04/09 07:31:04;;;;;;;30.10;19.35;;;23.30;44.30;;;;;;6147848;28;88240;-62
2023/04/09 07:34:05;;;;;;;27.45;18.60;;;23.30;44.40;;;;;;6147622;28;82964;-64
2023/04/09 07:37:05;;;;;;;27.42;18.52;;;23.40;44.50;;;;;;6104142;28;88715;-58
2023/04/09 07:40:06;;;;;;;28.58;17.88;;;23.40;44.60;;;;;;6129709;28;84150;-60
2023/04/09 07:43:07;;;;;;;30.48;18.48;;;23.40;44.80;;;;;;6137156;28;83908;-60
2023/04/09 07:46:07;;;;;;;26.23;17.90;;;23.50;44.80;;;;;;6139637;28;85828;-59
2023/04/09 07:49:08;;;;;;;31.70;19.17;;;23.50;44.90;;;;;;6141065;28;89875;-59
2023/04/09 07:52:08;;;;;;;27.10;18.40;;;23.60;45.70;;;;;;6139972;28;85540;-57
2023/04/09 07:55:09;;;;;;;24.20;16.33;;;23.60;45.00;;;;;;6127688;28;83159;-60
2023/04/09 07:58:10;;;;;;;25.98;17.42;;;23.60;45.00;;;;;;6132898;28;88197;-61
2023/04/09 08:01:11;;;;;;;25.10;17.08;;;23.60;45.30;;;;;;6137808;28;84750;-59
2023/04/09 08:04:12;;;;;;;28.17;17.38;;;23.60;45.20;;;;;;6138096;28;84929;-60
2023/04/09 08:07:13;;;;;;;24.77;16.17;;;23.60;44.90;;;;;;6139909;28;88195;-59
2023/04/09 08:10:15;;;;;;;23.27;16.13;;;23.70;44.90;;;;;;6142660;28;83799;-62
2023/04/09 08:13:15;;;;;;;23.55;16.17;;;23.70;44.80;;;;;;6144891;28;83492;-60
2023/04/09 08:16:16;;;;;;;26.52;17.30;;;23.60;45.00;;;;;;6144292;28;84519;-59
2023/04/09 08:19:16;;;;;;;21.98;15.32;;;23.70;45.70;;;;;;6130332;28;85980;-60
2023/04/09 08:22:17;;;;;;;22.35;15.88;;;23.60;44.90;;;;;;6122914;28;84176;-58
2023/04/09 08:25:18;;;;;;;22.98;16.45;;;23.70;45.80;;;;;;6116445;28;84232;-59
2023/04/09 08:28:18;;;;;;;22.65;15.82;;;23.70;45.10;;;;;;6131689;28;83650;-60
2023/04/09 08:31:19;;;;;;;24.67;14.50;;;23.70;45.10;;;;;;6122194;28;83186;-60
2023/04/09 08:34:20;;;;;;;19.75;14.13;;;23.60;45.10;;;;;;6127201;28;88306;-62
2023/04/09 08:37:21;;;;;;;19.83;14.52;;;23.70;45.20;;;;;;6121560;28;83184;-59
2023/04/09 08:40:21;;;;;;;23.55;16.50;;;23.70;44.60;;;;;;6121916;28;83608;-58
2023/04/09 08:43:22;;;;;;;25.90;17.25;;;23.70;43.90;;;;;;6125049;28;83635;-59
2023/04/09 08:46:23;;;;;;;23.35;16.05;;;23.70;43.50;;;;;;6121686;28;83235;-58
2023/04/09 08:49:23;;;;;;;20.95;15.32;;;23.70;43.40;;;;;;6121373;28;85642;-59
2023/04/09 08:52:24;;;;;;;20.80;14.98;;;23.70;43.20;;;;;;6123861;28;83402;-58
2023/04/09 08:55:24;;;;;;;21.33;15.32;;;23.60;43.10;;;;;;6118318;28;87166;-61
2023/04/09 08:58:25;;;;;;;23.83;15.77;;;23.60;42.80;;;;;;6122270;28;83516;-59
2023/04/09 09:01:25;;;;;;;20.27;14.50;;;23.60;42.60;;;;;;6117912;28;86262;-58
2023/04/09 09:04:26;;;;;;;18.40;13.63;;;23.50;42.70;;;;;;6125545;28;84633;-59
2023/04/09 09:07:26;;;;;;;19.20;13.90;;;23.50;42.70;;;;;;6118077;28;84072;-59
2023/04/09 09:10:27;;;;;;;17.67;13.40;;;23.50;42.40;;;;;;6123941;28;84309;-59
2023/04/09 09:13:27;;;;;;;19.48;13.02;;;23.50;42.30;;;;;;6129720;28;83180;-59
2023/04/09 09:16:28;;;;;;;16.00;12.75;;;23.40;42.20;;;;;;6120977;28;83250;-57
2023/04/09 09:19:35;;;;;;;19.88;12.63;;;23.40;42.30;;;;;;6131730;28;83026;-59
2023/04/09 09:22:35;;;;;;;17.65;12.85;;;23.40;42.20;;;;;;6130519;28;83572;-59
2023/04/09 09:25:36;;;;;;;15.98;12.43;;;23.30;42.10;;;;;;6122102;28;87841;-64
2023/04/09 09:28:37;;;;;;;19.67;13.23;;;23.40;42.40;;;;;;6127466;28;83173;-64
2023/04/09 09:31:37;;;;;;;18.65;12.70;;;23.30;42.50;;;;;;6122108;28;85992;-66
2023/04/09 09:34:38;;;;;;;19.73;14.02;;;23.30;42.30;;;;;;6118031;28;83789;-65
2023/04/09 09:37:38;;;;;;;23.23;14.38;;;23.30;42.60;;;;;;6123273;28;84251;-65
2023/04/09 09:40:39;;;;;;;16.90;12.88;;;23.30;42.60;;;;;;6128902;28;83051;-60
2023/04/09 09:43:40;;;;;;;15.63;11.95;;;23.30;42.70;;;;;;6136477;28;83490;-60
2023/04/09 09:46:44;;;;;;;18.75;12.60;;;23.30;42.70;;;;;;6117346;28;83130;-62
2023/04/09 09:49:45;;;;;;;19.85;13.85;;;23.30;42.30;;;;;;6105306;28;83530;-62
2023/04/09 09:52:45;;;;;;;19.98;14.65;;;23.30;42.30;;;;;;6113990;28;83631;-63
2023/04/09 09:55:46;;;;;;;17.77;12.80;;;23.30;42.20;;;;;;6138957;28;83885;-62
2023/04/09 09:58:46;;;;;;;16.90;13.10;;;23.30;42.10;;;;;;6144633;28;83615;-63
2023/04/09 10:01:47;;;;;;;16.52;12.57;;;23.30;41.80;;;;;;6145709;28;83632;-63
2023/04/09 10:04:47;;;;;;;16.83;12.60;;;23.30;41.90;;;;;;6146958;28;85357;-62
2023/04/09 10:07:48;;;;;;;17.27;12.15;;;23.30;42.30;;;;;;6146460;28;88406;-63
2023/04/09 10:10:49;;;;;;;16.92;11.75;;;23.30;41.70;;;;;;6146585;28;83241;-62
2023/04/09 10:13:50;;;;;;;15.10;11.23;;;23.30;41.60;;;;;;6146824;28;84079;-63
2023/04/09 10:16:51;;;;;;;20.80;12.55;;;23.40;41.70;;;;;;6145753;28;83138;-63
2023/04/09 10:19:51;;;;;;;17.90;11.88;;;23.30;42.20;;;;;;6125713;28;83186;-64
2023/04/09 10:22:52;;;;;;;18.02;12.18;;;23.40;42.90;;;;;;6125589;28;83284;-62
2023/04/09 10:25:52;;;;;;;19.55;11.98;;;23.40;43.40;;;;;;6126454;28;83093;-63
2023/04/09 10:28:53;;;;;;;19.60;12.50;;;23.40;44.00;;;;;;6127058;28;83046;-65
2023/04/09 10:31:53;;;;;;;19.13;12.82;;;23.40;44.30;;;;;;6125815;28;84189;-64
2023/04/09 10:34:54;;;;;;;19.02;12.20;;;23.40;44.40;;;;;;6126082;28;83114;-63
2023/04/09 10:37:54;;;;;;;17.40;12.88;;;23.40;44.60;;;;;;6124752;28;83407;-62
2023/04/09 10:40:55;;;;;;;21.67;12.63;;;23.40;44.50;;;;;;6124615;28;83879;-63
2023/04/09 10:43:55;;;;;;;17.85;12.65;;;23.40;44.40;;;;;;6124437;28;83661;-62
2023/04/09 10:46:56;;;;;;;20.38;13.02;;;23.40;45.00;;;;;;6125354;28;83026;-62
2023/04/09 10:49:56;;;;;;;22.15;13.60;;;23.40;45.00;;;;;;6116853;28;85738;-63
2023/04/09 10:52:59;;;;;;;19.35;12.05;;;23.40;45.30;;;;;;6145512;28;83387;-63
2023/04/09 10:56:00;;;;;;;17.27;12.23;;;23.40;45.30;;;;;;6149659;28;83218;-62
2023/04/09 10:59:00;;;;;;;17.40;12.02;;;23.40;45.20;;;;;;6143723;28;85106;-62
2023/04/09 11:02:01;;;;;;;19.75;11.70;;;23.30;45.30;;;;;;6144034;28;83728;-63
2023/04/09 11:05:01;;;;;;;18.25;11.88;;;23.30;45.70;;;;;;6147870;28;85016;-64
2023/04/09 11:08:02;;;;;;;19.50;11.85;;;23.30;45.00;;;;;;6148113;28;83164;-61
2023/04/09 11:11:03;;;;;;;17.73;12.07;;;23.20;44.50;;;;;;6148649;28;83617;-63
2023/04/09 11:14:03;;;;;;;17.45;11.20;;;23.20;44.70;;;;;;6149533;28;86314;-67
2023/04/09 11:17:04;;;;;;;14.98;10.27;;;23.20;45.60;;;;;;6139524;28;83106;-62
2023/04/09 11:20:05;;;;;;;17.15;11.98;;;23.30;45.40;;;;;;6148758;28;82864;-62
2023/04/09 11:23:05;;;;;;;15.05;10.80;;;23.30;45.50;;;;;;6149634;28;83036;-62
2023/04/09 11:26:06;;;;;;;15.05;11.45;;;23.30;45.20;;;;;;6149185;28;82972;-61
2023/04/09 11:29:09;;;;;;;18.55;11.82;;;23.30;44.50;;;;;;6149187;28;83435;-61
2023/04/09 11:32:10;;;;;;;17.77;10.80;;;23.30;44.20;;;;;;6148430;28;85661;-60
2023/04/09 11:35:11;;;;;;;15.43;10.98;;;23.30;44.30;;;;;;6147349;28;83357;-60
2023/04/09 11:38:12;;;;;;;15.23;11.18;;;23.20;44.30;;;;;;6148233;28;83873;-63
2023/04/09 11:41:13;;;;;;;17.65;10.65;;;23.20;44.30;;;;;;6146552;28;83377;-64
2023/04/09 11:44:13;;;;;;;15.82;11.63;;;23.30;44.10;;;;;;6149214;28;84467;-63
2023/04/09 11:47:15;;;;;;;13.07;9.93;;;23.30;44.10;;;;;;6149740;28;83541;-64
2023/04/09 11:50:16;;;;;;;16.02;11.60;;;23.40;44.40;;;;;;6151127;28;82706;-64
2023/04/09 11:53:16;;;;;;;15.10;10.35;;;23.30;44.30;;;;;;6149208;28;83119;-61
2023/04/09 11:56:17;;;;;;;14.93;10.52;;;23.30;44.10;;;;;;6138104;28;84155;-67
2023/04/09 11:59:17;;;;;;;21.83;11.55;;;23.30;44.00;;;;;;6140761;28;83525;-66
2023/04/09 12:02:18;;;;;;;14.00;10.52;;;23.30;43.70;;;;;;6146825;28;84033;-66
2023/04/09 12:05:19;;;;;;;14.75;11.38;;;23.30;43.50;;;;;;6148074;28;83027;-64
2023/04/09 12:08:19;;;;;;;13.00;10.82;;;23.30;43.40;;;;;;6137454;28;84710;-58
2023/04/09 12:11:20;;;;;;;15.20;10.52;;;23.30;43.50;;;;;;6141618;28;83054;-63
2023/04/09 12:14:20;;;;;;;14.57;10.32;;;23.30;43.40;;;;;;6136730;28;86134;-76
2023/04/09 12:17:21;;;;;;;15.27;10.80;;;23.30;43.70;;;;;;6124192;28;84815;-61
2023/04/09 12:20:23;;;;;;;14.43;11.25;;;23.30;43.50;;;;;;6139506;28;83097;-61
2023/04/09 12:23:23;;;;;;;14.15;10.88;;;23.20;42.90;;;;;;6142858;28;85017;-59
2023/04/09 12:26:24;;;;;;;17.40;10.23;;;23.20;43.10;;;;;;6146728;28;84792;-61
2023/04/09 12:29:25;;;;;;;13.63;10.90;;;23.20;42.90;;;;;;6136699;28;86910;-60
2023/04/09 12:32:27;;;;;;;13.77;10.50;;;23.20;43.60;;;;;;6146963;28;83552;-66
2023/04/09 12:35:28;;;;;;;16.55;10.57;;;23.10;43.20;;;;;;6144223;28;84329;-66
2023/04/09 12:38:28;;;;;;;15.73;10.00;;;23.20;43.00;;;;;;6142938;28;85726;-63
2023/04/09 12:41:29;;;;;;;13.25;9.57;;;23.20;43.10;;;;;;6117760;28;87648;-59
2023/04/09 12:44:31;;;;;;;15.75;9.82;;;23.20;43.30;;;;;;6124293;28;83135;-63
2023/04/09 12:47:32;;;;;;;13.50;10.48;;;23.20;43.30;;;;;;6126953;28;84872;-63
2023/04/09 12:50:32;;;;;;;15.48;9.48;;;23.30;43.60;;;;;;6119100;28;83533;-65
2023/04/09 12:53:33;;;;;;;14.73;10.20;;;23.20;43.60;;;;;;6131249;28;87176;-61
2023/04/09 12:56:34;;;;;;;13.27;10.13;;;23.30;43.60;;;;;;6129428;28;84672;-59
2023/04/09 12:59:34;;;;;;;13.90;10.05;;;23.20;43.60;;;;;;6127673;28;83475;-62
2023/04/09 13:02:35;;;;;;;12.75;10.13;;;23.20;43.30;;;;;;6125749;28;83389;-61
2023/04/09 13:05:36;;;;;;;13.07;10.38;;;23.20;43.10;;;;;;6126448;28;83190;-61
2023/04/09 13:08:36;;;;;;;11.88;9.50;;;23.20;43.10;;;;;;6130960;28;83751;-60
2023/04/09 13:11:37;;;;;;;12.30;9.48;;;23.20;43.00;;;;;;6126368;28;84866;-62
2023/04/09 13:14:37;;;;;;;14.20;9.80;;;23.20;42.70;;;;;;6129266;28;80420;-63
2023/04/09 13:17:38;;;;;;;17.33;10.80;;;23.20;42.80;;;;;;6136706;28;80548;-60
2023/04/09 13:20:38;;;;;;;14.02;11.10;;;23.10;42.70;;;;;;6124303;28;83364;-61
2023/04/09 13:23:39;;;;;;;12.45;10.20;;;23.10;42.50;;;;;;6129506;28;85775;-58
2023/04/09 13:26:40;;;;;;;13.98;10.18;;;23.10;42.40;;;;;;6126844;28;85406;-60
2023/04/09 13:29:40;;;;;;;13.73;10.50;;;23.10;42.20;;;;;;6140420;28;83021;-59
2023/04/09 13:32:41;;;;;;;15.23;10.63;;;23.10;41.90;;;;;;6128746;28;87915;-60
2023/04/09 13:35:42;;;;;;;12.82;10.55;;;23.10;41.70;;;;;;6123132;28;87470;-60
2023/04/09 13:38:42;;;;;;;16.80;11.45;;;23.10;41.40;;;;;;6124877;28;83542;-59
2023/04/09 13:41:43;;;;;;;18.00;10.80;;;23.10;41.30;;;;;;6085017;28;85439;-59
2023/04/09 13:44:44;;;;;;;16.52;10.15;;;23.20;41.30;;;;;;6103262;28;83668;-59
2023/04/09 13:47:44;;;;;;;15.18;9.85;;;23.20;41.50;;;;;;6107001;28;84301;-62
2023/04/09 13:50:45;;;;;;;12.75;9.85;;;23.10;41.20;;;;;;6108432;28;83088;-60
2023/04/09 13:53:47;;;;;;;11.48;9.52;;;23.20;41.10;;;;;;6109730;28;82942;-62
2023/04/09 13:56:48;;;;;;;12.98;10.13;;;23.20;41.00;;;;;;6107734;28;83030;-61
2023/04/09 13:59:49;;;;;;;13.35;9.90;;;23.20;40.80;;;;;;6103349;28;92683;-61
2023/04/09 14:02:49;;;;;;;15.32;9.63;;;23.20;40.90;;;;;;6108326;28;82800;-62
2023/04/09 14:05:50;;;;;;;12.55;10.27;;;23.20;40.70;;;;;;6106205;28;81880;-62
2023/04/09 14:08:50;;;;;;;14.63;10.52;;;23.20;40.40;;;;;;6105000;28;83990;-61
2023/04/09 14:11:53;;;;;;;13.23;10.20;;;23.20;40.40;;;;;;6104637;28;84347;-60
2023/04/09 14:14:53;;;;;;;13.60;9.98;;;23.20;40.30;;;;;;6100600;28;84873;-60
2023/04/09 14:17:54;;;;;;;13.85;10.68;;;23.20;40.10;;;;;;6105176;28;84078;-62
2023/04/09 14:20:55;;;;;;;13.57;10.20;;;23.20;40.10;;;;;;6103384;28;85027;-61
2023/04/09 14:23:55;;;;;;;13.98;10.00;;;23.20;39.90;;;;;;6098433;28;88002;-60
2023/04/09 14:26:56;;;;;;;14.25;9.35;;;23.20;39.80;;;;;;6103879;28;84203;-60
2023/04/09 14:29:57;;;;;;;12.30;9.80;;;23.10;40.00;;;;;;6107113;28;84229;-59
2023/04/09 14:32:57;;;;;;;15.27;9.90;;;23.10;39.90;;;;;;6108576;28;82861;-60
2023/04/09 14:35:58;;;;;;;13.57;9.18;;;23.10;39.90;;;;;;6104084;28;85373;-60
2023/04/09 14:38:58;;;;;;;13.55;9.85;;;23.10;40.00;;;;;;6108136;28;81472;-64
2023/04/09 14:41:59;;;;;;;13.90;9.60;;;23.10;40.40;;;;;;6104038;28;82387;-63
2023/04/09 14:45:00;;;;;;;14.60;10.05;;;23.10;40.30;;;;;;6104473;28;81647;-63
2023/04/09 14:48:00;;;;;;;14.68;9.73;;;23.10;40.30;;;;;;6105481;28;84341;-61
2023/04/09 14:51:01;;;;;;;13.68;9.27;;;23.10;40.20;;;;;;6107400;28;81815;-60
2023/04/09 14:54:01;;;;;;;11.48;9.32;;;23.10;40.20;;;;;;6105793;28;82052;-59
2023/04/09 14:57:02;;;;;;;18.33;10.27;;;23.10;40.20;;;;;;6105986;28;82650;-60
2023/04/09 15:00:03;;;;;;;12.27;9.68;;;23.10;40.10;;;;;;6099587;28;84349;-61
2023/04/09 15:03:03;;;;;;;13.80;9.90;;;23.00;40.20;;;;;;6105529;28;82897;-61
2023/04/09 15:06:04;;;;;;;12.90;10.07;;;23.00;40.60;;;;;;6105707;28;82580;-61
2023/04/09 15:09:05;;;;;;;11.38;9.40;;;23.00;40.10;;;;;;6104306;28;84600;-60
2023/04/09 15:12:07;;;;;;;16.90;9.98;;;23.00;40.10;;;;;;6104809;28;84490;-62
2023/04/09 15:15:08;;;;;;;14.75;9.98;;;23.00;40.20;;;;;;6098089;28;86521;-62
2023/04/09 15:18:08;;;;;;;12.02;9.00;;;22.90;40.30;;;;;;6102336;28;84688;-63
2023/04/09 15:21:09;;;;;;;13.50;9.90;;;23.00;40.50;;;;;;6097485;28;85108;-62